Skip Navigation Links Skip Navigation Links

Current Weather

Tipton, Fort Meade(Odenton), Md.

For information only: do not use for flight planning or navigation.
Latest weather
Observation time Sunday, August 1, 2021 5:35 AM EDT
Local time Sunday, August 1, 2021 7:14 AM EDT
Flight conditions Visual Meteorological Conditions
Winds
Wind speed calm
Visibility 10 mi.
Sky condition
Ceiling 9,000 ft. overcast
Cloud layer overcast 9,000 ft.
Temperature 64°F
Dewpoint 64°F
Altimeter 29.92 in.Hg
Derived measurements
Relative humidity 100%
Density altitude 785 ft.
Remarks
Fully automated report.
Automated weather observing station without precipitation discriminator.
METAR KFME 010935Z AUTO 00000KT 10SM OVC090 18/18 A2992 RMK AO1

Settings

Location code

InnerDrive.Weather 4.0.6770.0 Release CLR 4.0.30319.42000
Copyright ©2018 Inner Drive Technology. All rights reserved. Portions Copyright ©1986-2018 David Braverman.

Find weather

Site navigation


Skip Navigation Links

Place info

Page info

PayPal - The safer, easier way to pay online!

Return home.

Copyright ©2021 Inner Drive Technology. Purveyors of fine, hand-crafted computer software. Page printed 2021-08-01T11:14:03 UTC.